Time;durP1;ratioP1;P1;durP2;ratioP2;P2;SDS_P1;SDS_P2;PMS_P1;PMS_P2;Temp;Humidity;BMP_temperature;BMP_pressure;BME280_temperature;BME280_humidity;BME280_pressure;Samples;Min_cycle;Max_cycle;Signal;HPM_P1;HPM_P2
2023/06/07 00:01:54;;;;;;;5.18;2.55;;;16.30;87.50;;;;;;5032043;28;20107;-76
2023/06/07 00:04:20;;;;;;;4.72;2.40;;;16.30;87.60;;;;;;5031926;28;20025;-76
2023/06/07 00:06:47;;;;;;;4.97;3.20;;;16.30;87.70;;;;;;5031684;28;20116;-75
2023/06/07 00:09:13;;;;;;;3.25;2.40;;;16.30;87.90;;;;;;5031848;28;20018;-76
2023/06/07 00:11:39;;;;;;;2.88;2.22;;;16.30;88.00;;;;;;5031421;28;20028;-74
2023/06/07 00:14:05;;;;;;;3.33;2.25;;;16.30;88.10;;;;;;5031819;28;20104;-74
2023/06/07 00:16:32;;;;;;;3.70;2.60;;;16.20;88.10;;;;;;5031463;28;20032;-75
2023/06/07 00:18:58;;;;;;;5.40;2.75;;;16.20;88.20;;;;;;5031599;28;20017;-74
2023/06/07 00:21:24;;;;;;;3.65;2.15;;;16.20;88.40;;;;;;5029488;28;20041;-75
2023/06/07 00:23:50;;;;;;;2.50;2.28;;;16.10;88.50;;;;;;5031750;28;20036;-76
2023/06/07 00:26:16;;;;;;;5.75;2.75;;;16.10;88.60;;;;;;5030715;28;20178;-74
2023/06/07 00:28:41;;;;;;;4.57;3.05;;;16.10;88.80;;;;;;5031676;28;20026;-75
2023/06/07 00:31:07;;;;;;;5.10;2.55;;;16.10;88.80;;;;;;5030610;28;20129;-75
2023/06/07 00:33:33;;;;;;;7.57;2.63;;;16.00;88.90;;;;;;5031313;28;20026;-73
2023/06/07 00:35:59;;;;;;;4.18;2.70;;;16.00;89.60;;;;;;5030994;28;20488;-73
2023/06/07 00:38:24;;;;;;;2.92;2.47;;;16.00;89.10;;;;;;5031402;28;20079;-74
2023/06/07 00:40:50;;;;;;;3.63;2.33;;;16.00;89.30;;;;;;5032867;28;20096;-74
2023/06/07 00:43:16;;;;;;;4.70;2.63;;;15.90;89.50;;;;;;5035147;28;20022;-74
2023/06/07 00:45:42;;;;;;;3.97;2.00;;;15.90;90.00;;;;;;5035229;28;20033;-75
2023/06/07 00:48:08;;;;;;;3.90;2.55;;;15.80;89.50;;;;;;5034157;28;20111;-75
2023/06/07 00:50:34;;;;;;;5.25;2.60;;;15.80;89.70;;;;;;5034844;28;20022;-75
2023/06/07 00:53:02;;;;;;;4.68;2.58;;;15.80;89.80;;;;;;5034549;28;20026;-75
2023/06/07 00:55:28;;;;;;;5.47;2.35;;;15.70;89.90;;;;;;5034838;28;20021;-74
2023/06/07 00:57:54;;;;;;;4.43;2.78;;;15.70;90.00;;;;;;5034640;28;20035;-74
2023/06/07 01:00:20;;;;;;;5.70;2.90;;;15.70;90.10;;;;;;5033978;28;20492;-74
2023/06/07 01:02:47;;;;;;;4.47;2.35;;;15.70;90.20;;;;;;5034277;28;20113;-73
2023/06/07 01:05:17;;;;;;;4.80;2.50;;;15.60;90.20;;;;;;5034650;28;20028;-74
2023/06/07 01:07:48;;;;;;;3.13;2.50;;;15.60;90.50;;;;;;5034755;28;20025;-75
2023/06/07 01:10:15;;;;;;;3.55;2.70;;;15.60;90.30;;;;;;5034353;28;20022;-74
2023/06/07 01:12:43;;;;;;;4.30;2.63;;;15.50;90.30;;;;;;5034261;28;20068;-74
2023/06/07 01:15:11;;;;;;;5.50;2.75;;;15.50;90.30;;;;;;5034563;28;20504;-75
2023/06/07 01:17:40;;;;;;;4.20;2.65;;;15.50;90.40;;;;;;5034138;28;20036;-73
2023/06/07 01:20:12;;;;;;;3.53;2.90;;;15.50;90.40;;;;;;5033921;28;20037;-73
2023/06/07 01:22:42;;;;;;;5.47;2.50;;;15.50;90.50;;;;;;5033804;28;20080;-73
2023/06/07 01:25:09;;;;;;;4.45;2.70;;;15.50;90.50;;;;;;5034223;28;20061;-73
2023/06/07 01:27:37;;;;;;;3.90;2.85;;;15.40;90.90;;;;;;5032593;28;20028;-72
2023/06/07 01:30:03;;;;;;;4.63;2.25;;;15.30;90.70;;;;;;5030059;28;20108;-73
2023/06/07 01:32:30;;;;;;;4.05;2.22;;;15.30;90.70;;;;;;5025863;28;20140;-72
2023/06/07 01:34:56;;;;;;;4.15;3.15;;;15.30;90.80;;;;;;5026357;28;20037;-72
2023/06/07 01:37:22;;;;;;;7.15;3.72;;;15.30;91.00;;;;;;5027163;28;20135;-72
2023/06/07 01:39:51;;;;;;;4.30;3.13;;;15.30;91.10;;;;;;5027368;28;20108;-71
2023/06/07 01:42:18;;;;;;;6.22;3.35;;;15.30;91.10;;;;;;5025345;28;20029;-74
2023/06/07 01:44:46;;;;;;;5.28;3.15;;;15.20;91.40;;;;;;5030774;28;20136;-73
2023/06/07 01:47:14;;;;;;;7.22;3.10;;;15.20;91.30;;;;;;5027355;28;20471;-74
2023/06/07 01:49:41;;;;;;;4.78;3.40;;;15.10;91.50;;;;;;5025666;28;20021;-74
2023/06/07 01:52:07;;;;;;;6.13;3.28;;;15.10;91.70;;;;;;5028131;28;20447;-74
2023/06/07 01:54:33;;;;;;;5.25;3.40;;;15.10;91.70;;;;;;5026533;28;20053;-74
2023/06/07 01:57:33;;;;;;;6.05;3.17;;;15.00;91.60;;;;;;5028148;28;20033;-74
2023/06/07 02:00:11;;;;;;;4.43;2.92;;;14.90;91.90;;;;;;5025121;28;20447;-74
2023/06/07 02:02:44;;;;;;;5.57;2.75;;;14.90;91.70;;;;;;5024511;28;20108;-74
2023/06/07 02:05:16;;;;;;;3.40;2.58;;;14.90;91.60;;;;;;5027902;28;20021;-72
2023/06/07 02:07:50;;;;;;;5.10;3.05;;;14.80;91.70;;;;;;5028738;28;20021;-73
2023/06/07 02:10:20;;;;;;;3.47;2.33;;;14.80;91.70;;;;;;5027860;28;20065;-73
2023/06/07 02:12:49;;;;;;;4.30;2.90;;;14.80;91.70;;;;;;5027233;28;20408;-73
2023/06/07 02:15:15;;;;;;;3.58;2.55;;;14.80;91.80;;;;;;5028348;28;20079;-72
2023/06/07 02:18:07;;;;;;;3.10;2.42;;;14.70;91.80;;;;;;5027652;28;20076;-72
2023/06/07 02:20:35;;;;;;;4.18;2.47;;;14.70;91.90;;;;;;5025605;28;20487;-72
2023/06/07 02:23:01;;;;;;;5.18;2.72;;;14.70;92.00;;;;;;5026298;28;20087;-72
2023/06/07 02:25:27;;;;;;;3.40;2.55;;;14.70;92.00;;;;;;5025610;28;20034;-72
2023/06/07 02:27:53;;;;;;;3.00;2.45;;;14.70;92.10;;;;;;5025332;28;20018;-72
2023/06/07 02:30:19;;;;;;;3.03;2.45;;;14.70;92.00;;;;;;5029027;28;20037;-73
2023/06/07 02:32:48;;;;;;;5.25;2.50;;;14.70;91.90;;;;;;5027110;28;20030;-72
2023/06/07 02:35:17;;;;;;;5.15;3.00;;;14.60;91.90;;;;;;5025774;28;20365;-72
2023/06/07 02:37:43;;;;;;;4.07;2.75;;;14.60;92.00;;;;;;5027890;28;20022;-72
2023/06/07 02:40:10;;;;;;;2.90;2.38;;;14.60;92.10;;;;;;5024594;28;20034;-72
2023/06/07 02:42:36;;;;;;;4.07;2.45;;;14.50;92.10;;;;;;5022026;28;20033;-73
2023/06/07 02:45:03;;;;;;;4.22;2.50;;;14.50;92.10;;;;;;5027949;28;20030;-72
2023/06/07 02:47:31;;;;;;;4.85;2.95;;;14.50;92.30;;;;;;5027219;28;20032;-72
2023/06/07 02:49:58;;;;;;;5.35;2.97;;;14.50;92.30;;;;;;5029003;28;20028;-72
2023/06/07 02:52:25;;;;;;;3.97;3.15;;;14.40;92.40;;;;;;5024999;28;20037;-74
2023/06/07 02:54:51;;;;;;;3.70;2.85;;;14.40;92.40;;;;;;5043314;28;20091;-74
2023/06/07 02:57:16;;;;;;;4.80;2.55;;;14.40;92.40;;;;;;5025607;28;20457;-74
2023/06/07 02:59:42;;;;;;;4.47;3.15;;;14.40;92.60;;;;;;5024163;28;20037;-73
2023/06/07 03:02:07;;;;;;;4.70;2.92;;;14.40;92.70;;;;;;5023022;28;20033;-74
2023/06/07 03:04:33;;;;;;;5.43;2.90;;;14.30;92.60;;;;;;5027039;28;20499;-74
2023/06/07 03:07:00;;;;;;;3.88;3.22;;;14.30;92.70;;;;;;5024546;28;20026;-74
2023/06/07 03:09:25;;;;;;;6.53;2.90;;;14.30;92.70;;;;;;5027734;28;20029;-74
2023/06/07 03:11:51;;;;;;;4.25;2.90;;;14.30;92.80;;;;;;5023102;28;20052;-74
2023/06/07 03:14:19;;;;;;;5.93;2.65;;;14.30;92.80;;;;;;5024769;28;20037;-73
2023/06/07 03:16:45;;;;;;;7.22;3.25;;;14.20;92.80;;;;;;5026155;28;20389;-73
2023/06/07 03:19:11;;;;;;;5.63;2.80;;;14.20;92.80;;;;;;5026596;28;20373;-72
2023/06/07 03:21:38;;;;;;;3.55;2.72;;;14.20;92.90;;;;;;5025158;28;20660;-73
2023/06/07 03:24:05;;;;;;;5.85;2.92;;;14.20;92.90;;;;;;5023800;28;20043;-73
2023/06/07 03:26:31;;;;;;;9.05;3.35;;;14.20;92.90;;;;;;5027088;28;20025;-73
2023/06/07 03:28:57;;;;;;;4.85;2.97;;;14.20;93.00;;;;;;5027079;28;20100;-73
2023/06/07 03:31:23;;;;;;;4.28;2.90;;;14.20;93.00;;;;;;5026226;28;20120;-73
2023/06/07 03:33:49;;;;;;;5.22;2.92;;;14.20;93.00;;;;;;5023065;28;20032;-73
2023/06/07 03:36:20;;;;;;;7.43;3.20;;;14.20;93.00;;;;;;5024759;28;20029;-73
2023/06/07 03:38:46;;;;;;;5.72;2.97;;;14.10;93.00;;;;;;5026597;28;20381;-73
2023/06/07 03:41:12;;;;;;;6.55;3.25;;;14.10;93.00;;;;;;5026809;28;20022;-73
2023/06/07 03:43:38;;;;;;;5.80;3.10;;;14.10;93.10;;;;;;5026118;28;20108;-73
2023/06/07 03:46:03;;;;;;;4.82;2.78;;;14.00;93.20;;;;;;5025656;28;20026;-73
2023/06/07 03:48:29;;;;;;;5.22;3.13;;;14.00;93.20;;;;;;5026321;28;20534;-72
2023/06/07 03:50:54;;;;;;;3.28;2.75;;;14.00;93.20;;;;;;5024286;28;20026;-73
2023/06/07 03:53:20;;;;;;;3.75;2.80;;;14.00;93.20;;;;;;5023414;28;20404;-72
2023/06/07 03:55:47;;;;;;;4.40;3.10;;;14.00;93.20;;;;;;5025953;28;20036;-73
2023/06/07 03:58:17;;;;;;;5.40;2.72;;;14.00;93.30;;;;;;5041524;28;20187;-73
2023/06/07 04:00:44;;;;;;;7.20;3.38;;;14.00;93.30;;;;;;5024244;28;20595;-74
2023/06/07 04:03:09;;;;;;;4.00;2.70;;;14.00;93.40;;;;;;5021682;28;20462;-75
2023/06/07 04:05:38;;;;;;;4.05;2.55;;;14.00;93.40;;;;;;5023554;28;20021;-73
2023/06/07 04:08:05;;;;;;;4.45;3.20;;;14.00;93.40;;;;;;5022757;28;20018;-74
2023/06/07 04:10:31;;;;;;;4.45;3.00;;;14.00;93.40;;;;;;5024671;28;20044;-73
2023/06/07 04:12:56;;;;;;;5.65;2.80;;;14.00;93.60;;;;;;5022517;28;20022;-73
2023/06/07 04:15:22;;;;;;;3.90;2.55;;;14.00;93.40;;;;;;5024043;28;20627;-73
2023/06/07 04:17:48;;;;;;;5.80;3.15;;;14.10;93.40;;;;;;5030481;28;20037;-74
2023/06/07 04:20:14;;;;;;;4.85;3.03;;;14.10;93.40;;;;;;5025327;28;20091;-73
2023/06/07 04:22:41;;;;;;;4.85;2.85;;;14.10;93.40;;;;;;5027679;28;20030;-73
2023/06/07 04:25:07;;;;;;;4.32;2.78;;;14.20;93.40;;;;;;5025732;28;20047;-73
2023/06/07 04:27:34;;;;;;;6.38;3.13;;;14.20;93.40;;;;;;5026372;28;20025;-74
2023/06/07 04:30:01;;;;;;;5.30;3.58;;;14.20;93.40;;;;;;5026224;28;20022;-73
2023/06/07 04:32:27;;;;;;;4.20;3.13;;;14.30;93.40;;;;;;5028652;28;20584;-70
2023/06/07 04:34:53;;;;;;;6.18;2.88;;;14.30;93.30;;;;;;5026876;28;20508;-70
2023/06/07 04:37:19;;;;;;;4.18;2.85;;;14.40;93.30;;;;;;5027835;28;20033;-70
2023/06/07 04:39:49;;;;;;;4.47;2.80;;;14.40;93.30;;;;;;5021562;28;20544;-72
2023/06/07 04:42:16;;;;;;;3.20;2.80;;;14.50;93.30;;;;;;5021560;28;20199;-74
2023/06/07 04:44:42;;;;;;;6.22;2.88;;;14.60;93.20;;;;;;5025256;28;20033;-74
2023/06/07 04:47:09;;;;;;;5.72;3.17;;;14.70;93.00;;;;;;5030698;28;20036;-74
2023/06/07 04:49:35;;;;;;;5.38;3.00;;;14.80;92.90;;;;;;5030221;28;20100;-73
2023/06/07 04:52:02;;;;;;;4.82;3.05;;;14.80;92.80;;;;;;5024907;28;20034;-73
2023/06/07 04:54:29;;;;;;;4.88;2.78;;;14.90;92.70;;;;;;5031199;28;20423;-73
2023/06/07 04:56:56;;;;;;;3.72;3.15;;;15.00;92.60;;;;;;5026386;28;20025;-73
2023/06/07 04:59:23;;;;;;;5.60;2.95;;;15.10;92.40;;;;;;5032556;28;20395;-73
2023/06/07 05:01:48;;;;;;;4.25;2.95;;;15.20;92.30;;;;;;5027540;28;20112;-72
2023/06/07 05:04:16;;;;;;;5.35;2.83;;;15.30;92.20;;;;;;5031348;28;20556;-72
2023/06/07 05:06:42;;;;;;;7.68;3.45;;;15.40;92.10;;;;;;5031510;28;20029;-72
2023/06/07 05:09:08;;;;;;;6.35;2.90;;;15.50;91.90;;;;;;5032593;28;20045;-72
2023/06/07 05:11:34;;;;;;;4.28;3.15;;;15.60;91.80;;;;;;5030576;28;20045;-73
2023/06/07 05:14:00;;;;;;;5.85;3.25;;;15.70;91.60;;;;;;5029160;28;20053;-72
2023/06/07 05:16:25;;;;;;;4.13;2.97;;;15.80;91.60;;;;;;5030370;28;20109;-73
2023/06/07 05:18:53;;;;;;;5.65;2.90;;;15.90;91.40;;;;;;5028978;28;20026;-72
2023/06/07 05:21:18;;;;;;;6.28;3.40;;;16.00;91.30;;;;;;5028454;28;20030;-73
2023/06/07 05:23:44;;;;;;;5.38;3.13;;;16.10;91.10;;;;;;5031578;28;20017;-73
2023/06/07 05:26:10;;;;;;;3.53;2.83;;;16.20;91.00;;;;;;5031800;28;20405;-73
2023/06/07 05:28:36;;;;;;;4.60;2.50;;;16.30;90.90;;;;;;5030930;28;20034;-73
2023/06/07 05:31:02;;;;;;;3.83;2.80;;;16.30;90.80;;;;;;5033637;28;20061;-73
2023/06/07 05:33:31;;;;;;;5.05;2.95;;;16.40;90.70;;;;;;5029064;28;20527;-73
2023/06/07 05:35:58;;;;;;;9.10;3.13;;;16.50;90.50;;;;;;5033839;28;20040;-75
2023/06/07 05:38:23;;;;;;;5.00;3.30;;;16.60;90.40;;;;;;5032242;28;20510;-74
2023/06/07 05:40:49;;;;;;;5.57;3.30;;;16.60;90.10;;;;;;5030270;28;20033;-73
2023/06/07 05:43:15;;;;;;;7.40;3.25;;;16.70;89.80;;;;;;5029771;28;20029;-73
2023/06/07 05:45:41;;;;;;;6.75;2.60;;;16.80;89.70;;;;;;5026620;28;20029;-73
2023/06/07 05:48:07;;;;;;;8.43;3.35;;;16.80;89.40;;;;;;5031052;28;20090;-73
2023/06/07 05:50:32;;;;;;;5.97;3.50;;;16.90;89.40;;;;;;5030944;28;20112;-74
2023/06/07 05:52:59;;;;;;;5.07;3.13;;;16.90;89.20;;;;;;5029175;28;20057;-74
2023/06/07 05:55:28;;;;;;;4.38;3.03;;;17.00;89.30;;;;;;5028032;28;20029;-74
2023/06/07 05:57:57;;;;;;;3.83;2.83;;;17.10;89.00;;;;;;5030555;28;20032;-74
2023/06/07 06:00:22;;;;;;;4.78;2.70;;;17.10;88.60;;;;;;5027622;28;20473;-74
2023/06/07 06:02:48;;;;;;;8.25;3.47;;;17.20;88.60;;;;;;5023253;28;20063;-73
2023/06/07 06:05:15;;;;;;;4.93;3.28;;;17.30;88.60;;;;;;5029459;28;20461;-73
2023/06/07 06:07:42;;;;;;;5.40;3.03;;;17.40;88.40;;;;;;5030399;28;20032;-74
2023/06/07 06:10:08;;;;;;;4.72;2.90;;;17.50;88.00;;;;;;5030024;28;20030;-73
2023/06/07 06:12:33;;;;;;;4.13;2.75;;;17.50;87.80;;;;;;5026973;28;20083;-74
2023/06/07 06:15:00;;;;;;;6.75;3.22;;;17.60;87.90;;;;;;5029154;28;20104;-73
2023/06/07 06:17:26;;;;;;;5.93;3.28;;;17.70;87.60;;;;;;5028075;28;20056;-74
2023/06/07 06:19:52;;;;;;;7.63;3.83;;;17.80;87.50;;;;;;5029601;28;20065;-74
2023/06/07 06:22:18;;;;;;;6.32;3.67;;;17.90;87.30;;;;;;5030144;28;20556;-73
2023/06/07 06:24:43;;;;;;;5.55;3.53;;;17.90;87.20;;;;;;5028339;28;20026;-74
2023/06/07 06:27:11;;;;;;;6.25;3.95;;;18.00;87.00;;;;;;5029605;28;21323;-74
2023/06/07 06:29:37;;;;;;;6.60;3.95;;;18.00;86.80;;;;;;5027598;28;20017;-73
2023/06/07 06:32:03;;;;;;;7.15;3.95;;;18.10;86.90;;;;;;5029212;28;20087;-73
2023/06/07 06:34:29;;;;;;;9.00;4.10;;;18.10;86.90;;;;;;5028501;28;20211;-74
2023/06/07 06:36:57;;;;;;;7.70;4.40;;;18.10;86.50;;;;;;5026889;28;20116;-75
2023/06/07 06:39:23;;;;;;;7.30;4.38;;;18.00;86.30;;;;;;5026545;28;20092;-75
2023/06/07 06:41:49;;;;;;;7.85;3.95;;;18.00;86.70;;;;;;5017754;28;20036;-75
2023/06/07 06:44:15;;;;;;;11.00;4.22;;;18.00;87.10;;;;;;5018942;28;20108;-76
2023/06/07 06:46:40;;;;;;;9.68;4.20;;;18.00;87.20;;;;;;5023806;28;21254;-74
2023/06/07 06:49:06;;;;;;;6.85;4.50;;;18.00;87.20;;;;;;5023638;28;20021;-75
2023/06/07 06:51:31;;;;;;;6.45;3.67;;;18.00;87.20;;;;;;5023943;28;20018;-74
2023/06/07 06:53:57;;;;;;;8.98;3.70;;;18.00;87.30;;;;;;5022025;28;20036;-74
2023/06/07 06:56:23;;;;;;;5.45;3.88;;;18.00;87.50;;;;;;5020354;28;20069;-74
2023/06/07 06:58:48;;;;;;;6.28;3.70;;;18.10;88.40;;;;;;5022412;28;20083;-74
2023/06/07 07:01:15;;;;;;;7.05;4.10;;;18.00;88.80;;;;;;5020829;28;20496;-74
2023/06/07 07:03:41;;;;;;;4.72;3.58;;;18.00;89.00;;;;;;5023796;28;20036;-73
2023/06/07 07:06:07;;;;;;;8.43;4.32;;;17.90;89.30;;;;;;5020955;28;20021;-74
2023/06/07 07:08:35;;;;;;;6.03;4.10;;;17.90;89.30;;;;;;5021325;28;20025;-74
2023/06/07 07:11:01;;;;;;;5.22;3.35;;;17.90;89.20;;;;;;5028879;28;20048;-74
2023/06/07 07:13:26;;;;;;;5.35;4.45;;;17.90;89.40;;;;;;5027491;28;20083;-73
2023/06/07 07:15:52;;;;;;;6.07;3.70;;;18.00;89.00;;;;;;5023349;28;20064;-74
2023/06/07 07:18:18;;;;;;;8.02;3.90;;;18.00;89.10;;;;;;5029003;28;20396;-74
2023/06/07 07:20:45;;;;;;;6.60;3.80;;;18.10;89.20;;;;;;5037145;28;20546;-74
2023/06/07 07:23:11;;;;;;;5.18;3.47;;;18.10;88.80;;;;;;5029843;28;20441;-73
2023/06/07 07:25:37;;;;;;;4.57;3.13;;;18.10;88.50;;;;;;5026737;28;20021;-74
2023/06/07 07:28:03;;;;;;;4.95;3.13;;;18.10;88.30;;;;;;5027816;28;20032;-74
2023/06/07 07:30:29;;;;;;;19.20;4.25;;;18.20;88.30;;;;;;5024888;28;20556;-74
2023/06/07 07:32:57;;;;;;;7.10;3.25;;;18.20;87.90;;;;;;5023155;28;20408;-74
2023/06/07 07:35:23;;;;;;;6.97;3.70;;;18.30;88.00;;;;;;5028920;28;20034;-75
2023/06/07 07:37:50;;;;;;;5.22;3.70;;;18.30;87.90;;;;;;5019557;28;20381;-74
2023/06/07 07:40:16;;;;;;;4.90;2.58;;;18.30;87.90;;;;;;5027759;28;20033;-75
2023/06/07 07:42:42;;;;;;;6.32;3.20;;;18.40;87.80;;;;;;5025276;28;20021;-74
2023/06/07 07:45:08;;;;;;;5.80;3.50;;;18.40;87.50;;;;;;5029308;28;20026;-75
2023/06/07 07:47:34;;;;;;;5.03;3.20;;;18.40;87.30;;;;;;5024718;28;20041;-74
2023/06/07 07:50:04;;;;;;;3.50;2.63;;;18.60;87.20;;;;;;5022484;28;20100;-75
2023/06/07 07:52:30;;;;;;;3.72;3.22;;;18.60;87.20;;;;;;5042673;28;20369;-74
2023/06/07 07:54:56;;;;;;;5.18;2.75;;;18.70;87.00;;;;;;5032220;28;20060;-75
2023/06/07 07:57:21;;;;;;;8.35;3.90;;;18.70;86.30;;;;;;5031625;28;20053;-75
2023/06/07 07:59:47;;;;;;;4.88;3.20;;;18.70;86.70;;;;;;5031356;28;20037;-75
2023/06/07 08:02:13;;;;;;;6.35;3.70;;;18.80;86.90;;;;;;5033647;28;20033;-75
2023/06/07 08:04:38;;;;;;;3.67;2.65;;;18.90;86.50;;;;;;5030698;28;20035;-75
2023/06/07 08:07:04;;;;;;;5.05;3.05;;;18.90;85.60;;;;;;5031576;28;20040;-74
2023/06/07 08:09:30;;;;;;;4.53;2.97;;;19.00;85.50;;;;;;5035183;28;20105;-73
2023/06/07 08:11:55;;;;;;;5.63;2.70;;;19.00;85.40;;;;;;5033511;28;20388;-74
2023/06/07 08:14:21;;;;;;;5.57;2.92;;;19.10;85.80;;;;;;5031519;28;20116;-74
2023/06/07 08:16:48;;;;;;;6.30;3.05;;;19.20;85.80;;;;;;5032467;28;20087;-73
2023/06/07 08:19:14;;;;;;;3.80;3.15;;;19.20;85.60;;;;;;5025020;28;20057;-75
2023/06/07 08:21:43;;;;;;;5.20;3.35;;;19.30;85.40;;;;;;5027490;28;20041;-76
2023/06/07 08:24:09;;;;;;;4.97;2.88;;;19.30;84.90;;;;;;5026955;28;20573;-77
2023/06/07 08:26:34;;;;;;;4.63;2.72;;;19.40;84.80;;;;;;5028016;28;20021;-76
2023/06/07 08:29:00;;;;;;;4.20;2.53;;;19.40;85.00;;;;;;5028856;28;20081;-76
2023/06/07 08:31:27;;;;;;;6.25;2.85;;;19.40;84.50;;;;;;5026597;28;20022;-76
2023/06/07 08:33:53;;;;;;;7.18;2.80;;;19.50;84.40;;;;;;5030684;28;20021;-74
2023/06/07 08:36:18;;;;;;;6.20;2.72;;;19.60;84.10;;;;;;5027571;28;20030;-76
2023/06/07 08:38:44;;;;;;;6.43;3.45;;;19.60;82.40;;;;;;5030034;28;20104;-76
2023/06/07 08:41:10;;;;;;;5.13;2.92;;;19.70;83.20;;;;;;5024805;28;20053;-75
2023/06/07 08:43:37;;;;;;;4.32;2.63;;;19.80;83.50;;;;;;5030274;28;20391;-75
2023/06/07 08:46:04;;;;;;;5.80;2.97;;;19.80;83.50;;;;;;5027454;28;20112;-74
2023/06/07 08:48:32;;;;;;;2.67;2.20;;;20.00;83.20;;;;;;5030208;28;20029;-75
2023/06/07 08:51:01;;;;;;;4.28;2.45;;;20.00;82.00;;;;;;5028460;28;20021;-75
2023/06/07 08:53:33;;;;;;;3.30;2.45;;;20.10;81.70;;;;;;5029141;28;20026;-75
2023/06/07 08:56:01;;;;;;;2.75;2.30;;;20.10;79.00;;;;;;5026827;28;20022;-75
2023/06/07 08:58:27;;;;;;;6.95;2.53;;;20.20;79.50;;;;;;5028800;28;20049;-74
2023/06/07 09:00:53;;;;;;;3.30;1.92;;;20.20;77.80;;;;;;5029326;28;20400;-75
2023/06/07 09:03:19;;;;;;;6.20;2.45;;;20.30;77.70;;;;;;5029722;28;20600;-74
2023/06/07 09:05:46;;;;;;;6.22;2.70;;;20.30;77.80;;;;;;5030155;28;20385;-75
2023/06/07 09:08:12;;;;;;;2.72;2.30;;;20.40;78.30;;;;;;5024217;28;20091;-75
2023/06/07 09:10:38;;;;;;;3.90;2.30;;;20.50;78.60;;;;;;5028458;28;20538;-76
2023/06/07 09:13:05;;;;;;;3.85;2.17;;;20.50;78.70;;;;;;5023779;28;20396;-74
2023/06/07 09:15:33;;;;;;;6.22;3.17;;;20.60;78.40;;;;;;5026088;28;20026;-73
2023/06/07 09:18:01;;;;;;;5.72;2.80;;;20.60;77.60;;;;;;5037664;28;20029;-74
2023/06/07 09:20:30;;;;;;;6.38;2.55;;;20.70;77.50;;;;;;5021888;28;20108;-74
2023/06/07 09:23:13;;;;;;;3.25;2.25;;;20.90;76.60;;;;;;5026912;28;20025;-75
2023/06/07 09:25:39;;;;;;;5.03;2.72;;;20.90;76.20;;;;;;5021733;28;20021;-75
2023/06/07 09:28:13;;;;;;;4.03;2.80;;;20.90;76.60;;;;;;5026818;28;20022;-74
2023/06/07 09:30:54;;;;;;;4.45;2.60;;;21.10;76.50;;;;;;5025918;28;20318;-74
2023/06/07 09:33:30;;;;;;;7.68;2.70;;;21.10;76.50;;;;;;5029574;28;20061;-75
2023/06/07 09:36:04;;;;;;;5.13;2.65;;;21.20;76.90;;;;;;5033364;28;20033;-74
2023/06/07 09:38:30;;;;;;;5.28;2.75;;;21.30;76.60;;;;;;5028194;28;20037;-74
2023/06/07 09:41:00;;;;;;;3.88;2.42;;;21.30;76.40;;;;;;5029189;28;20151;-75
2023/06/07 09:43:26;;;;;;;4.85;1.85;;;21.30;75.80;;;;;;5028645;28;20495;-75
2023/06/07 09:45:56;;;;;;;6.13;3.00;;;21.40;75.20;;;;;;5025785;28;20037;-75
2023/06/07 09:48:22;;;;;;;6.60;2.42;;;21.40;74.30;;;;;;5028390;28;20021;-72
2023/06/07 09:50:57;;;;;;;5.25;2.20;;;21.40;74.20;;;;;;5018574;28;20029;-74
2023/06/07 09:53:24;;;;;;;5.70;2.97;;;21.40;74.20;;;;;;5021989;28;20034;-73
2023/06/07 09:55:50;;;;;;;4.35;2.58;;;21.40;75.00;;;;;;5020699;28;20037;-74
2023/06/07 09:58:23;;;;;;;4.03;2.55;;;21.50;75.20;;;;;;5023604;28;20040;-73
2023/06/07 10:00:49;;;;;;;6.05;2.70;;;21.50;74.60;;;;;;5023629;28;20061;-73
2023/06/07 10:03:16;;;;;;;4.35;2.45;;;21.50;75.30;;;;;;5027882;28;20053;-74
2023/06/07 10:05:43;;;;;;;3.58;2.55;;;21.50;75.00;;;;;;5024605;28;20049;-73
2023/06/07 10:08:10;;;;;;;2.90;2.40;;;21.60;74.60;;;;;;5025809;28;20076;-73
2023/06/07 10:10:40;;;;;;;6.07;2.53;;;21.60;74.30;;;;;;5023851;28;20479;-72
2023/06/07 10:13:05;;;;;;;5.55;2.65;;;21.70;73.90;;;;;;5025233;28;20033;-73
2023/06/07 10:15:33;;;;;;;5.13;2.95;;;21.80;74.00;;;;;;5024651;28;20036;-74
2023/06/07 10:18:05;;;;;;;4.90;2.50;;;21.90;73.10;;;;;;5023747;28;20017;-73
2023/06/07 10:20:36;;;;;;;5.40;2.85;;;21.90;72.70;;;;;;5023871;28;20206;-74
2023/06/07 10:23:07;;;;;;;3.70;2.53;;;22.00;72.80;;;;;;5041852;28;20028;-73
2023/06/07 10:25:39;;;;;;;4.25;2.70;;;22.00;72.80;;;;;;5023890;28;20021;-73
2023/06/07 10:28:12;;;;;;;5.55;2.55;;;22.10;72.60;;;;;;5025797;28;20038;-72
2023/06/07 10:30:45;;;;;;;6.97;3.33;;;22.10;72.30;;;;;;5024513;28;20051;-74
2023/06/07 10:33:12;;;;;;;5.55;2.83;;;22.10;70.70;;;;;;5021400;28;20025;-73
2023/06/07 10:35:39;;;;;;;5.85;2.97;;;22.10;70.60;;;;;;5023100;28;20029;-73
2023/06/07 10:38:05;;;;;;;7.07;2.72;;;22.10;70.40;;;;;;5027766;28;20037;-72
2023/06/07 10:40:31;;;;;;;4.50;2.90;;;22.10;71.30;;;;;;5023829;28;20034;-73
2023/06/07 10:42:57;;;;;;;4.25;2.55;;;22.10;71.30;;;;;;5023244;28;20029;-73
2023/06/07 10:45:23;;;;;;;4.47;2.88;;;22.10;71.50;;;;;;5021939;28;20025;-73
2023/06/07 10:47:49;;;;;;;6.65;2.80;;;22.10;70.60;;;;;;5017013;28;20037;-72
2023/06/07 10:50:45;;;;;;;6.82;2.40;;;22.10;70.00;;;;;;5022949;28;20109;-73
2023/06/07 10:53:11;;;;;;;4.45;2.90;;;22.10;69.80;;;;;;5024723;28;20037;-72
2023/06/07 10:55:36;;;;;;;5.57;2.67;;;22.00;69.00;;;;;;5024003;28;20033;-73
2023/06/07 10:58:02;;;;;;;4.95;2.60;;;22.10;68.30;;;;;;5025122;28;20033;-74
2023/06/07 11:00:32;;;;;;;3.25;2.70;;;22.20;67.30;;;;;;5024210;28;20040;-74
2023/06/07 11:03:12;;;;;;;4.32;2.90;;;22.30;67.10;;;;;;5020069;28;20052;-74
2023/06/07 11:05:53;;;;;;;3.92;2.63;;;22.30;65.80;;;;;;5022892;28;20026;-74
2023/06/07 11:08:30;;;;;;;5.47;2.60;;;22.50;64.60;;;;;;5020049;28;20026;-74
2023/06/07 11:10:59;;;;;;;3.30;2.42;;;22.60;63.10;;;;;;5024831;28;20029;-74
2023/06/07 11:13:43;;;;;;;7.20;3.00;;;22.60;64.10;;;;;;5019760;28;20620;-73
2023/06/07 11:16:24;;;;;;;;;;;22.50;64.60;;;;;;5028329;28;20029;-74
2023/06/07 11:19:03;;;;;;;3.90;3.10;;;22.50;64.70;;;;;;5025345;28;19948;-73
2023/06/07 11:21:30;;;;;;;3.85;2.50;;;22.60;64.10;;;;;;5023636;28;20095;-73
2023/06/07 11:24:12;;;;;;;4.30;2.72;;;22.60;64.20;;;;;;5021899;28;20029;-73
2023/06/07 11:26:38;;;;;;;5.90;2.97;;;22.60;63.30;;;;;;5022451;28;20022;-73
2023/06/07 11:29:10;;;;;;;4.07;3.10;;;22.60;63.70;;;;;;5020656;28;20374;-73
2023/06/07 11:31:36;;;;;;;6.68;2.95;;;22.60;63.90;;;;;;5026157;28;20032;-73
2023/06/07 11:34:01;;;;;;;6.10;2.85;;;22.70;63.20;;;;;;5021969;28;20025;-74
2023/06/07 11:36:34;;;;;;;22.95;4.20;;;22.70;63.60;;;;;;5024970;28;20030;-73
2023/06/07 11:39:04;;;;;;;11.13;3.80;;;22.80;64.20;;;;;;5021231;28;20722;-73
2023/06/07 11:41:30;;;;;;;9.50;3.10;;;22.90;64.00;;;;;;5023964;28;20477;-73
2023/06/07 11:43:59;;;;;;;5.32;2.80;;;23.00;61.30;;;;;;5023956;28;21677;-72
2023/06/07 11:46:25;;;;;;;6.22;2.70;;;23.00;60.80;;;;;;5025023;28;20037;-72
2023/06/07 11:48:50;;;;;;;4.45;2.88;;;23.10;61.80;;;;;;5023468;28;20080;-72
2023/06/07 11:51:17;;;;;;;5.00;2.92;;;23.20;61.70;;;;;;5025690;28;20099;-72
2023/06/07 11:53:42;;;;;;;5.32;2.67;;;23.20;61.40;;;;;;5023108;28;20037;-73
2023/06/07 11:56:08;;;;;;;5.78;2.75;;;23.30;60.70;;;;;;5021361;28;20037;-73
2023/06/07 11:58:36;;;;;;;8.23;4.32;;;23.30;60.20;;;;;;5020420;28;20030;-72
2023/06/07 12:01:03;;;;;;;7.90;3.58;;;23.30;60.00;;;;;;5020648;28;20395;-72
2023/06/07 12:03:29;;;;;;;4.78;2.58;;;23.40;59.90;;;;;;5025444;28;20493;-73
2023/06/07 12:05:55;;;;;;;6.22;2.53;;;23.30;59.00;;;;;;5022128;28;20033;-72
2023/06/07 12:08:22;;;;;;;5.68;2.47;;;23.40;59.50;;;;;;5025629;28;20018;-73
2023/06/07 12:10:52;;;;;;;5.07;3.17;;;23.40;60.80;;;;;;5022691;28;20458;-73
2023/06/07 12:13:23;;;;;;;4.13;2.67;;;23.50;60.90;;;;;;5029359;28;20049;-74
2023/06/07 12:15:58;;;;;;;32.17;3.95;;;23.60;59.60;;;;;;5039480;28;20080;-75
2023/06/07 12:18:25;;;;;;;13.10;3.25;;;23.60;59.50;;;;;;5028950;28;20398;-74
2023/06/07 12:21:01;;;;;;;7.47;2.95;;;23.50;59.70;;;;;;5018656;28;20038;-75
2023/06/07 12:23:26;;;;;;;4.05;2.88;;;23.50;61.30;;;;;;5025793;28;20120;-74
2023/06/07 12:26:17;;;;;;;5.78;3.03;;;23.50;62.10;;;;;;5027614;28;20040;-73
2023/06/07 12:28:43;;;;;;;4.68;2.53;;;23.50;62.40;;;;;;5030142;28;20014;-73
2023/06/07 12:31:26;;;;;;;4.45;2.50;;;23.50;61.50;;;;;;5050021;28;20041;-74
2023/06/07 12:34:05;;;;;;;5.38;2.70;;;23.50;61.80;;;;;;5034835;28;20029;-74
2023/06/07 12:36:35;;;;;;;3.58;2.85;;;23.50;62.00;;;;;;5037303;28;20033;-73
2023/06/07 12:39:05;;;;;;;4.63;2.75;;;23.40;62.00;;;;;;5043799;28;20021;-73
2023/06/07 12:41:32;;;;;;;5.18;2.88;;;23.40;62.30;;;;;;5039761;28;20021;-72
2023/06/07 12:44:01;;;;;;;4.05;2.50;;;23.30;62.60;;;;;;5022490;28;20429;-72
2023/06/07 12:46:27;;;;;;;2.90;2.60;;;23.30;63.00;;;;;;5031565;28;20060;-74
2023/06/07 12:48:56;;;;;;;3.90;2.83;;;23.40;62.30;;;;;;5024355;28;20079;-74
2023/06/07 12:51:22;;;;;;;4.38;2.70;;;23.40;62.30;;;;;;5020045;28;20037;-72